createdAt,value
2019-02-21T00:00:24.249Z,5.40
2019-02-21T00:02:55.307Z,5.30
2019-02-21T00:05:27.577Z,5.20
2019-02-21T00:07:58.514Z,5.30
2019-02-21T00:10:29.327Z,5.30
2019-02-21T00:13:00.289Z,5.30
2019-02-21T00:15:32.426Z,5.30
2019-02-21T00:18:03.800Z,5.30
2019-02-21T00:20:34.637Z,5.40
2019-02-21T00:23:05.816Z,5.40
2019-02-21T00:25:39.994Z,5.40
2019-02-21T00:28:10.847Z,5.40
2019-02-21T00:30:41.770Z,5.40
2019-02-21T00:33:12.706Z,5.50
2019-02-21T00:35:44.754Z,5.50
2019-02-21T00:38:15.609Z,5.50
2019-02-21T00:40:46.526Z,5.50
2019-02-21T00:43:17.484Z,5.50
2019-02-21T00:45:49.348Z,5.60
2019-02-21T00:48:20.285Z,5.50
2019-02-21T00:50:51.218Z,5.60
2019-02-21T00:53:22.165Z,5.60
2019-02-21T00:55:53.277Z,5.60
2019-02-21T00:58:24.205Z,5.60
2019-02-21T01:00:55.146Z,5.60
2019-02-21T01:03:26.011Z,5.60
2019-02-21T01:05:58.677Z,5.80
2019-02-21T01:08:29.525Z,5.80
2019-02-21T01:11:00.466Z,5.80
2019-02-21T01:13:33.644Z,5.80
2019-02-21T01:16:04.493Z,5.80
2019-02-21T01:18:35.431Z,5.80
2019-02-21T01:21:06.477Z,5.90
2019-02-21T01:23:37.409Z,5.90
2019-02-21T01:26:08.348Z,6.00
2019-02-21T01:28:39.186Z,6.00
2019-02-21T01:31:10.016Z,5.90
2019-02-21T01:33:40.854Z,6.00
2019-02-21T01:36:11.663Z,6.00
2019-02-21T01:38:43.520Z,6.10
2019-02-21T01:41:14.386Z,6.00
2019-02-21T01:43:45.424Z,6.00
2019-02-21T01:46:16.361Z,6.00
2019-02-21T01:48:47.271Z,6.10
2019-02-21T01:51:18.242Z,6.10
2019-02-21T01:53:51.709Z,6.20
2019-02-21T01:56:22.595Z,6.20
2019-02-21T01:58:53.413Z,6.30
2019-02-21T02:01:25.215Z,6.30
2019-02-21T02:03:56.720Z,6.30
2019-02-21T02:06:27.658Z,6.30
2019-02-21T02:08:58.597Z,6.30
2019-02-21T02:11:29.507Z,6.30
2019-02-21T02:14:01.496Z,6.30
2019-02-21T02:16:33.414Z,6.40
2019-02-21T02:19:05.363Z,6.40
2019-02-21T02:21:36.356Z,6.40
2019-02-21T02:24:08.720Z,6.40
2019-02-21T02:26:39.578Z,6.50
2019-02-21T02:29:10.502Z,6.50
2019-02-21T02:31:42.150Z,6.40
2019-02-21T02:34:14.225Z,6.40
2019-02-21T02:36:45.162Z,6.50
2019-02-21T02:39:16.209Z,6.50
2019-02-21T02:41:47.143Z,6.50
2019-02-21T02:44:17.958Z,6.40
2019-02-21T02:46:48.952Z,6.50
2019-02-21T02:49:19.854Z,6.40
2019-02-21T02:51:50.684Z,6.50
2019-02-21T02:54:22.344Z,6.50
2019-02-21T02:56:53.155Z,6.50
2019-02-21T02:59:25.833Z,6.40
2019-02-21T03:01:56.698Z,6.40
2019-02-21T03:04:27.630Z,6.50
2019-02-21T03:06:59.524Z,6.50
2019-02-21T03:09:32.313Z,6.50
2019-02-21T03:12:03.007Z,6.50
2019-02-21T03:14:33.911Z,6.50
2019-02-21T03:17:04.883Z,6.50
2019-02-21T03:19:35.724Z,6.50
2019-02-21T03:22:06.658Z,6.50
2019-02-21T03:24:37.494Z,6.50
2019-02-21T03:27:09.863Z,6.50
2019-02-21T03:29:40.876Z,6.50
2019-02-21T03:32:13.115Z,6.50
2019-02-21T03:34:44.215Z,6.50
2019-02-21T03:37:16.109Z,6.50
2019-02-21T03:39:47.010Z,6.60
2019-02-21T03:42:17.946Z,6.50
2019-02-21T03:44:50.495Z,6.50
2019-02-21T03:47:21.437Z,6.60
2019-02-21T03:49:52.373Z,6.50
2019-02-21T03:52:23.321Z,6.40
2019-02-21T03:54:54.480Z,6.50
2019-02-21T03:57:25.422Z,6.50
2019-02-21T03:59:56.226Z,6.50
2019-02-21T04:02:27.365Z,6.50
2019-02-21T04:04:59.770Z,6.50
2019-02-21T04:07:30.683Z,6.50
2019-02-21T04:10:02.976Z,6.50
2019-02-21T04:12:33.895Z,6.50
2019-02-21T04:15:08.642Z,6.50
2019-02-21T04:17:39.550Z,6.50
2019-02-21T04:20:10.707Z,6.40
2019-02-21T04:22:43.279Z,6.40
2019-02-21T04:25:15.578Z,6.30
2019-02-21T04:27:48.346Z,6.30
2019-02-21T04:30:19.290Z,6.30
2019-02-21T04:32:50.235Z,6.20
2019-02-21T04:35:21.988Z,6.20
2019-02-21T04:37:52.819Z,6.20
2019-02-21T04:40:23.643Z,6.20
2019-02-21T04:42:54.465Z,6.30
2019-02-21T04:45:27.640Z,6.20
2019-02-21T04:47:58.523Z,6.20
2019-02-21T04:50:29.323Z,6.10
2019-02-21T04:53:00.293Z,6.10
2019-02-21T04:55:31.438Z,6.00
2019-02-21T04:58:02.390Z,6.00
2019-02-21T05:00:33.213Z,6.00
2019-02-21T05:03:04.046Z,6.00
2019-02-21T05:05:34.865Z,5.90
2019-02-21T05:08:05.690Z,5.90
2019-02-21T05:10:36.553Z,5.90
2019-02-21T05:13:07.387Z,6.00
2019-02-21T05:15:38.328Z,6.00
2019-02-21T05:18:09.135Z,5.90
2019-02-21T05:20:40.100Z,5.90
2019-02-21T05:23:10.901Z,6.00
2019-02-21T05:25:41.842Z,6.00
2019-02-21T05:28:20.796Z,6.00
2019-02-21T05:30:53.238Z,6.00
2019-02-21T05:33:43.771Z,6.00
2019-02-21T05:36:32.291Z,6.00
2019-02-21T05:39:20.052Z,6.00
2019-02-21T05:42:09.118Z,6.10
2019-02-21T05:44:41.591Z,6.10
2019-02-21T05:47:16.831Z,6.10
2019-02-21T05:49:49.304Z,6.20
2019-02-21T05:52:21.983Z,6.20
2019-02-21T05:54:58.916Z,6.20
2019-02-21T05:57:40.553Z,6.20
2019-02-21T06:00:13.029Z,6.20
2019-02-21T06:02:53.308Z,6.20
2019-02-21T06:05:37.705Z,6.30
2019-02-21T06:08:22.289Z,6.30
2019-02-21T06:11:01.011Z,6.30
2019-02-21T06:13:39.425Z,6.30
2019-02-21T06:16:15.074Z,6.30
2019-02-21T06:18:50.704Z,6.30
2019-02-21T06:21:29.753Z,6.30
2019-02-21T06:24:14.412Z,6.30
2019-02-21T06:26:46.891Z,6.40
2019-02-21T06:29:22.696Z,6.40
2019-02-21T06:31:53.983Z,6.40
2019-02-21T06:34:24.922Z,6.40
2019-02-21T06:36:55.755Z,6.50
2019-02-21T06:39:26.742Z,6.50
2019-02-21T06:42:00.006Z,6.60
2019-02-21T06:44:32.026Z,6.60
2019-02-21T06:47:02.961Z,6.60
2019-02-21T06:49:33.795Z,6.70
2019-02-21T06:52:04.738Z,6.70
2019-02-21T06:54:35.700Z,6.70
2019-02-21T06:57:06.641Z,6.70
2019-02-21T06:59:43.404Z,6.70
2019-02-21T07:02:10.464Z,6.80
2019-02-21T07:07:11.728Z,6.90
2019-02-21T07:09:42.635Z,6.90
2019-02-21T07:12:14.584Z,6.90
2019-02-21T07:14:45.526Z,7.00
2019-02-21T07:17:16.469Z,6.90
2019-02-21T07:19:47.410Z,6.90
2019-02-21T07:22:22.274Z,6.90
2019-02-21T07:24:54.143Z,6.90
2019-02-21T07:27:25.064Z,6.90
2019-02-21T07:29:56.018Z,6.90
2019-02-21T07:32:27.945Z,7.00
2019-02-21T07:34:58.808Z,6.90
2019-02-21T07:37:29.742Z,7.00
2019-02-21T07:40:00.579Z,6.90
2019-02-21T07:42:32.949Z,6.90
2019-02-21T07:45:03.887Z,6.90
2019-02-21T07:47:34.826Z,6.90
2019-02-21T07:50:09.055Z,6.80
2019-02-21T07:52:41.988Z,6.80
2019-02-21T07:55:12.859Z,6.70
2019-02-21T07:57:43.774Z,6.80
2019-02-21T08:00:14.707Z,6.80
2019-02-21T08:02:46.906Z,6.80
2019-02-21T08:05:17.822Z,6.90
2019-02-21T08:07:49.864Z,6.90
2019-02-21T08:10:30.505Z,7.00
2019-02-21T08:12:54.348Z,7.00
2019-02-21T08:15:27.568Z,7.00
2019-02-21T08:17:57.839Z,7.00
2019-02-21T08:20:34.191Z,7.00
2019-02-21T08:23:03.098Z,7.00
2019-02-21T08:25:34.678Z,7.10
2019-02-21T08:28:05.605Z,7.10
2019-02-21T08:30:36.411Z,7.10
2019-02-21T08:33:10.040Z,7.20
2019-02-21T08:35:42.563Z,7.10
2019-02-21T08:38:13.452Z,7.00
2019-02-21T08:40:44.290Z,7.00
2019-02-21T08:43:16.248Z,6.90
2019-02-21T08:45:47.190Z,6.90
2019-02-21T08:48:18.125Z,6.90
2019-02-21T08:50:48.965Z,7.00
2019-02-21T08:53:21.337Z,7.10
2019-02-21T08:55:52.273Z,7.10
2019-02-21T08:58:23.212Z,7.20
2019-02-21T09:00:54.609Z,7.30
2019-02-21T09:03:26.828Z,7.50
2019-02-21T09:05:57.738Z,7.60
2019-02-21T09:08:33.706Z,7.70
2019-02-21T09:11:03.848Z,7.90
2019-02-21T09:13:34.983Z,8.00
2019-02-21T09:16:05.890Z,8.10
2019-02-21T09:18:36.753Z,8.20
2019-02-21T09:21:07.699Z,8.20
2019-02-21T09:23:38.528Z,8.30
2019-02-21T09:26:09.572Z,8.20
2019-02-21T09:28:40.481Z,8.10
2019-02-21T09:31:11.660Z,8.10
2019-02-21T09:33:43.920Z,8.20
2019-02-21T09:36:15.173Z,8.20
2019-02-21T09:38:46.108Z,8.30
2019-02-21T09:41:17.044Z,8.30
2019-02-21T09:43:51.122Z,8.40
2019-02-21T09:46:21.862Z,8.40
2019-02-21T09:48:52.830Z,8.50
2019-02-21T09:51:23.660Z,8.90
2019-02-21T09:53:55.215Z,9.50
2019-02-21T09:56:30.444Z,10.50
2019-02-21T09:59:00.519Z,11.40
2019-02-21T10:01:32.515Z,12.00
2019-02-21T10:04:04.389Z,13.50
2019-02-21T10:06:35.335Z,14.90
2019-02-21T10:09:06.446Z,16.60
2019-02-21T10:11:37.807Z,18.00
2019-02-21T10:14:09.993Z,18.80
2019-02-21T10:16:40.930Z,19.70
2019-02-21T10:19:11.845Z,17.20
2019-02-21T10:21:43.818Z,16.40
2019-02-21T10:24:15.779Z,17.90
2019-02-21T10:26:46.636Z,18.30
2019-02-21T10:29:17.648Z,18.80
2019-02-21T10:31:48.604Z,19.60
2019-02-21T10:34:21.847Z,20.30
2019-02-21T10:36:52.920Z,19.20
2019-02-21T10:39:23.746Z,16.60
2019-02-21T10:41:54.618Z,15.40
2019-02-21T10:44:26.646Z,15.30
2019-02-21T10:46:57.599Z,14.90
2019-02-21T10:49:28.551Z,14.90
2019-02-21T10:52:01.468Z,16.00
2019-02-21T10:54:33.691Z,17.40
2019-02-21T10:57:04.681Z,18.20
2019-02-21T10:59:45.941Z,18.60
2019-02-21T11:02:12.338Z,18.60
2019-02-21T11:04:54.145Z,18.60
2019-02-21T11:07:16.489Z,20.50
2019-02-21T11:09:48.439Z,21.10
2019-02-21T11:12:19.695Z,19.10
2019-02-21T11:14:51.590Z,19.00
2019-02-21T11:17:23.100Z,19.20
2019-02-21T11:19:54.763Z,18.40
2019-02-21T11:22:26.173Z,18.80
2019-02-21T11:24:59.101Z,20.00
2019-02-21T11:27:30.513Z,20.20
2019-02-21T11:30:01.691Z,19.80
2019-02-21T11:32:33.137Z,20.80
2019-02-21T11:35:07.256Z,20.60
2019-02-21T11:37:43.360Z,19.00
2019-02-21T11:40:16.283Z,17.50
2019-02-21T11:42:47.236Z,17.50
2019-02-21T11:45:21.857Z,17.60
2019-02-21T11:47:53.172Z,17.30
2019-02-21T11:50:24.815Z,18.10
2019-02-21T11:52:56.554Z,16.40
2019-02-21T11:55:28.678Z,16.10
2019-02-21T11:58:00.126Z,15.80
2019-02-21T12:00:32.000Z,14.70
2019-02-21T12:03:03.318Z,14.40
2019-02-21T12:05:36.009Z,14.20
2019-02-21T12:08:06.989Z,14.10
2019-02-21T12:10:39.029Z,14.30
2019-02-21T12:13:10.250Z,15.10
2019-02-21T12:15:42.619Z,15.00
2019-02-21T12:18:14.113Z,13.80
2019-02-21T12:20:45.234Z,13.50
2019-02-21T12:23:17.781Z,13.30
2019-02-21T12:25:51.019Z,13.10
2019-02-21T12:28:21.940Z,13.30
2019-02-21T12:30:52.875Z,13.20
2019-02-21T12:33:23.801Z,12.90
2019-02-21T12:35:59.314Z,12.70
2019-02-21T12:38:29.381Z,12.40
2019-02-21T12:41:02.384Z,12.30
2019-02-21T12:43:33.307Z,12.10
2019-02-21T12:46:05.813Z,12.00
2019-02-21T12:48:37.022Z,11.80
2019-02-21T12:51:08.064Z,11.80
2019-02-21T12:53:39.000Z,11.60
2019-02-21T12:56:10.791Z,11.70
2019-02-21T12:58:42.210Z,11.70
2019-02-21T13:01:13.043Z,11.70
2019-02-21T13:03:43.954Z,11.70
2019-02-21T13:06:16.037Z,11.80
2019-02-21T13:08:47.173Z,11.80
2019-02-21T13:11:18.002Z,12.00
2019-02-21T13:13:48.929Z,12.10
2019-02-21T13:16:20.114Z,12.30
2019-02-21T13:18:51.133Z,12.70
2019-02-21T13:21:22.091Z,12.90
2019-02-21T13:23:53.025Z,12.90
2019-02-21T13:26:24.380Z,13.30
2019-02-21T13:28:57.152Z,13.80
2019-02-21T13:31:28.300Z,13.90
2019-02-21T13:33:59.199Z,13.70
2019-02-21T13:36:30.759Z,13.40
2019-02-21T13:39:03.751Z,13.30
2019-02-21T13:41:35.919Z,13.20
2019-02-21T13:44:06.880Z,12.60
2019-02-21T13:46:40.963Z,12.50
2019-02-21T13:49:11.123Z,12.40
2019-02-21T13:51:42.018Z,12.30
2019-02-21T13:54:13.398Z,12.30
2019-02-21T13:56:44.339Z,12.10
2019-02-21T13:59:15.275Z,12.20
2019-02-21T14:01:46.216Z,12.20
2019-02-21T14:04:17.153Z,12.10
2019-02-21T14:06:49.625Z,12.20
2019-02-21T14:09:24.191Z,12.10
2019-02-21T14:11:52.918Z,11.80
2019-02-21T14:14:24.076Z,11.60
2019-02-21T14:16:56.117Z,11.40
2019-02-21T14:19:27.059Z,11.20
2019-02-21T14:21:57.889Z,11.10
2019-02-21T14:24:36.273Z,10.90
2019-02-21T14:27:02.184Z,10.90
2019-02-21T14:29:39.350Z,10.80
2019-02-21T14:32:06.246Z,10.70
2019-02-21T14:34:37.424Z,10.70
2019-02-21T14:37:09.593Z,10.80
2019-02-21T14:39:40.440Z,10.70
2019-02-21T14:42:11.569Z,10.80
2019-02-21T14:44:42.492Z,10.80
2019-02-21T14:47:16.397Z,10.80
2019-02-21T14:49:47.350Z,10.90
2019-02-21T14:52:18.374Z,10.90
2019-02-21T14:54:49.224Z,11.00
2019-02-21T14:57:21.437Z,11.00
2019-02-21T14:59:52.431Z,10.90
2019-02-21T15:02:23.269Z,10.90
2019-02-21T15:04:54.315Z,10.90
2019-02-21T15:07:26.456Z,11.00
2019-02-21T15:09:57.417Z,11.00
2019-02-21T15:12:28.456Z,11.00
2019-02-21T15:14:59.705Z,10.90
2019-02-21T15:17:30.948Z,10.90
2019-02-21T15:20:01.784Z,10.90
2019-02-21T15:22:32.953Z,11.00
2019-02-21T15:25:04.275Z,11.00
2019-02-21T15:27:35.325Z,11.00
2019-02-21T15:30:09.118Z,10.90
2019-02-21T15:32:40.468Z,10.90
2019-02-21T15:35:12.710Z,10.90
2019-02-21T15:37:45.048Z,10.90
2019-02-21T15:40:16.251Z,10.90
2019-02-21T15:42:47.163Z,10.80
2019-02-21T15:45:24.240Z,10.80
2019-02-21T15:47:56.658Z,10.70
2019-02-21T15:50:27.565Z,10.70
2019-02-21T15:52:58.625Z,10.70
2019-02-21T15:55:32.156Z,10.70
2019-02-21T15:58:04.668Z,10.70
2019-02-21T16:00:36.028Z,10.60
2019-02-21T16:03:07.088Z,10.60
2019-02-21T16:05:38.021Z,10.60
2019-02-21T16:08:09.171Z,10.60
2019-02-21T16:10:40.144Z,10.50
2019-02-21T16:13:11.270Z,10.50
2019-02-21T16:15:42.494Z,10.50
2019-02-21T16:18:14.123Z,10.40
2019-02-21T16:20:45.426Z,10.40
2019-02-21T16:23:19.339Z,10.40
2019-02-21T16:25:50.239Z,10.30
2019-02-21T16:28:21.046Z,10.20
2019-02-21T16:30:52.016Z,10.20
2019-02-21T16:33:24.385Z,10.00
2019-02-21T16:35:56.353Z,9.90
2019-02-21T16:38:27.277Z,9.90
2019-02-21T16:40:58.350Z,9.80
2019-02-21T16:43:30.383Z,9.80
2019-02-21T16:46:07.867Z,9.90
2019-02-21T16:48:34.096Z,10.00
2019-02-21T16:51:05.050Z,10.00
2019-02-21T16:53:37.015Z,10.00
2019-02-21T16:56:08.028Z,10.00
2019-02-21T16:58:39.093Z,10.00
2019-02-21T17:01:10.132Z,10.00
2019-02-21T17:03:42.003Z,10.00
2019-02-21T17:06:13.040Z,10.00
2019-02-21T17:08:44.047Z,10.10
2019-02-21T17:11:15.014Z,10.00
2019-02-21T17:13:47.283Z,10.00
2019-02-21T17:16:18.286Z,10.00
2019-02-21T17:18:49.467Z,9.90
2019-02-21T17:21:21.079Z,9.80
2019-02-21T17:23:54.440Z,9.70
2019-02-21T17:26:25.557Z,9.60
2019-02-21T17:28:56.499Z,9.50
2019-02-21T17:31:27.477Z,9.50
2019-02-21T17:34:00.216Z,9.40
2019-02-21T17:36:32.763Z,9.40
2019-02-21T17:39:04.624Z,9.40
2019-02-21T17:41:37.305Z,9.40
2019-02-21T17:44:09.670Z,9.40
2019-02-21T17:46:40.741Z,9.40
2019-02-21T17:49:11.785Z,9.40
2019-02-21T17:51:43.008Z,9.30
2019-02-21T17:54:14.176Z,9.30
2019-02-21T17:56:45.422Z,9.30
2019-02-21T17:59:16.771Z,9.20
2019-02-21T18:01:48.360Z,9.20
2019-02-21T18:04:19.974Z,9.20
2019-02-21T18:06:51.120Z,9.20
2019-02-21T18:09:22.055Z,9.10
2019-02-21T18:11:53.399Z,9.20
2019-02-21T18:14:27.412Z,9.20
2019-02-21T18:16:59.429Z,9.20
2019-02-21T18:19:31.195Z,9.10
2019-02-21T18:22:02.477Z,9.10
2019-02-21T18:24:33.624Z,9.10
2019-02-21T18:27:04.881Z,9.10
2019-02-21T18:29:36.115Z,9.00
2019-02-21T18:32:09.017Z,9.10
2019-02-21T18:34:42.046Z,9.10
2019-02-21T18:37:14.104Z,9.00
2019-02-21T18:39:46.416Z,9.00
2019-02-21T18:42:18.845Z,9.00
2019-02-21T18:44:51.981Z,9.00
2019-02-21T18:47:25.149Z,9.00
2019-02-21T18:49:57.618Z,9.00
2019-02-21T18:52:30.500Z,9.00
2019-02-21T18:55:04.028Z,8.90
2019-02-21T18:57:36.591Z,9.00
2019-02-21T19:00:26.464Z,8.90
2019-02-21T19:02:58.861Z,8.90
2019-02-21T19:05:35.773Z,9.00
2019-02-21T19:08:06.143Z,9.00
2019-02-21T19:10:40.048Z,9.00
2019-02-21T19:13:13.286Z,8.90
2019-02-21T19:15:45.515Z,8.90
2019-02-21T19:18:18.147Z,8.90
2019-02-21T19:20:50.593Z,8.90
2019-02-21T19:23:23.650Z,8.90
2019-02-21T19:25:56.002Z,8.80
2019-02-21T19:28:28.377Z,8.90
2019-02-21T19:31:03.398Z,8.80
2019-02-21T19:33:36.492Z,8.80
2019-02-21T19:36:10.216Z,8.80
2019-02-21T19:38:44.444Z,8.80
2019-02-21T19:41:17.251Z,8.90
2019-02-21T19:43:51.605Z,8.90
2019-02-21T19:46:24.214Z,8.90
2019-02-21T19:48:59.288Z,8.90
2019-02-21T19:51:31.617Z,8.90
2019-02-21T19:54:05.396Z,8.90
2019-02-21T19:56:37.960Z,8.90
2019-02-21T19:59:10.308Z,8.90
2019-02-21T20:01:42.965Z,8.90
2019-02-21T20:04:18.382Z,8.80
2019-02-21T20:06:50.784Z,8.80
2019-02-21T20:09:23.545Z,8.90
2019-02-21T20:11:56.375Z,8.80
2019-02-21T20:14:28.630Z,8.90
2019-02-21T20:17:00.999Z,8.90
2019-02-21T20:19:33.387Z,8.80
2019-02-21T20:22:05.851Z,8.90
2019-02-21T20:24:39.329Z,8.90
2019-02-21T20:27:11.835Z,8.80
2019-02-21T20:29:44.590Z,8.80
2019-02-21T20:32:17.189Z,8.90
2019-02-21T20:34:49.005Z,8.90
2019-02-21T20:37:23.451Z,8.90
2019-02-21T20:39:55.280Z,8.90
2019-02-21T20:42:26.920Z,8.90
2019-02-21T20:44:58.345Z,8.80
2019-02-21T20:47:29.983Z,8.90
2019-02-21T20:50:03.254Z,8.90
2019-02-21T20:52:34.732Z,8.80
2019-02-21T20:55:08.422Z,8.80
2019-02-21T20:57:44.268Z,8.80
2019-02-21T21:00:17.949Z,8.90
2019-02-21T21:02:49.524Z,8.80
2019-02-21T21:05:20.722Z,8.90
2019-02-21T21:07:52.112Z,8.80
2019-02-21T21:10:23.357Z,8.90
2019-02-21T21:12:54.408Z,8.80
2019-02-21T21:15:27.929Z,8.90
2019-02-21T21:17:58.924Z,8.90
2019-02-21T21:20:31.055Z,8.80
2019-02-21T21:23:03.714Z,8.90
2019-02-21T21:25:35.541Z,8.90
2019-02-21T21:28:06.554Z,8.80
2019-02-21T21:30:37.488Z,8.90
2019-02-21T21:33:10.272Z,8.90
2019-02-21T21:35:41.342Z,8.90
2019-02-21T21:38:23.458Z,8.90
2019-02-21T21:40:46.376Z,8.90
2019-02-21T21:43:17.329Z,8.90
2019-02-21T21:45:48.267Z,8.90
2019-02-21T21:48:20.437Z,8.90
2019-02-21T21:50:51.468Z,8.90
2019-02-21T21:53:22.521Z,8.80
2019-02-21T21:55:54.580Z,8.90
2019-02-21T21:58:26.851Z,8.90
2019-02-21T22:00:57.964Z,8.80
2019-02-21T22:03:29.016Z,8.90
2019-02-21T22:05:59.972Z,8.90
2019-02-21T22:08:31.118Z,8.90
2019-02-21T22:11:02.156Z,8.90
2019-02-21T22:13:33.178Z,8.90
2019-02-21T22:16:04.131Z,8.90
2019-02-21T22:18:35.278Z,8.80
2019-02-21T22:21:06.520Z,8.90
2019-02-21T22:23:38.478Z,8.80
2019-02-21T22:26:09.420Z,8.90
2019-02-21T22:28:40.460Z,8.80
2019-02-21T22:31:11.500Z,8.80
2019-02-21T22:33:42.439Z,8.90
2019-02-21T22:36:13.790Z,8.80
2019-02-21T22:38:44.702Z,8.90
2019-02-21T22:41:15.746Z,8.90
2019-02-21T22:43:46.707Z,8.90
2019-02-21T22:46:19.487Z,8.80
2019-02-21T22:48:50.326Z,8.90
2019-02-21T22:51:21.364Z,8.90
2019-02-21T22:53:52.288Z,8.90
2019-02-21T22:56:23.213Z,8.90
2019-02-21T22:58:55.612Z,8.80
2019-02-21T23:01:29.081Z,8.90
2019-02-21T23:04:05.098Z,8.80
2019-02-21T23:06:50.337Z,8.80
2019-02-21T23:09:27.597Z,8.80
2019-02-21T23:11:55.568Z,8.80
2019-02-21T23:14:27.942Z,8.80
2019-02-21T23:17:00.441Z,8.80
2019-02-21T23:19:31.351Z,8.90
2019-02-21T23:22:02.319Z,8.80
2019-02-21T23:24:33.154Z,8.80
2019-02-21T23:27:05.424Z,8.80
2019-02-21T23:29:36.361Z,8.80
2019-02-21T23:32:07.300Z,8.80
2019-02-21T23:34:39.980Z,8.80
2019-02-21T23:37:12.167Z,8.80
2019-02-21T23:39:43.176Z,8.80
2019-02-21T23:42:14.225Z,8.70
2019-02-21T23:44:45.164Z,8.80
2019-02-21T23:47:17.403Z,8.80
2019-02-21T23:49:48.238Z,8.70
2019-02-21T23:52:21.316Z,8.80
2019-02-21T23:54:53.269Z,8.80
2019-02-21T23:57:24.156Z,8.80
2019-02-21T23:59:55.065Z,8.70
